createdAt,value
2018-11-11T00:04:37.901Z,1.50
2018-11-11T00:09:41.990Z,1.80
2018-11-11T00:14:45.857Z,1.60
2018-11-11T00:19:49.674Z,1.60
2018-11-11T00:24:53.795Z,1.70
2018-11-11T00:29:57.645Z,2.10
2018-11-11T00:35:01.765Z,1.73
2018-11-11T00:40:05.660Z,1.83
2018-11-11T00:45:09.986Z,1.67
2018-11-11T00:50:13.859Z,1.60
2018-11-11T00:55:17.820Z,1.60
2018-11-11T01:00:21.948Z,1.80
2018-11-11T01:05:25.820Z,1.87
2018-11-11T01:10:29.633Z,1.80
2018-11-11T01:15:33.453Z,1.60
2018-11-11T01:20:37.307Z,1.43
2018-11-11T01:25:41.113Z,1.50
2018-11-11T01:30:44.935Z,1.60
2018-11-11T01:35:48.802Z,1.70
2018-11-11T01:40:52.676Z,1.80
2018-11-11T01:45:56.482Z,2.00
2018-11-11T01:51:00.378Z,1.80
2018-11-11T01:56:04.206Z,1.53
2018-11-11T02:01:08.065Z,1.73
2018-11-11T02:06:11.898Z,1.90
2018-11-11T02:11:15.738Z,1.60
2018-11-11T02:16:19.827Z,1.77
2018-11-11T02:21:23.916Z,1.77
2018-11-11T02:26:27.766Z,1.80
2018-11-11T02:31:31.840Z,1.47
2018-11-11T02:36:35.662Z,1.70
2018-11-11T02:41:39.900Z,1.67
2018-11-11T02:46:43.738Z,1.70
2018-11-11T02:51:47.574Z,1.40
2018-11-11T02:56:51.710Z,1.40
2018-11-11T03:01:55.767Z,1.70
2018-11-11T03:06:59.640Z,1.97
2018-11-11T03:12:03.453Z,1.65
2018-11-11T03:17:07.552Z,1.80
2018-11-11T03:22:11.611Z,1.00
2018-11-11T03:27:15.426Z,1.40
2018-11-11T03:32:19.248Z,1.40
2018-11-11T03:37:23.363Z,1.30
2018-11-11T03:42:27.194Z,1.70
2018-11-11T03:47:31.107Z,1.70
2018-11-11T03:52:35.210Z,1.77
2018-11-11T03:57:39.025Z,1.37
2018-11-11T04:02:42.862Z,1.43
2018-11-11T04:07:46.981Z,1.90
2018-11-11T04:12:50.823Z,2.20
2018-11-11T04:17:54.718Z,2.00
2018-11-11T04:22:58.593Z,1.70
2018-11-11T04:28:02.729Z,1.53
2018-11-11T04:33:07.251Z,1.70
2018-11-11T04:38:11.147Z,1.93
2018-11-11T04:43:15.260Z,1.87
2018-11-11T04:48:19.125Z,1.90
2018-11-11T04:53:22.982Z,1.73
2018-11-11T04:58:26.838Z,1.73
2018-11-11T05:03:30.755Z,1.67
2018-11-11T05:08:34.608Z,1.60
2018-11-11T05:13:38.461Z,1.73
2018-11-11T05:18:42.582Z,1.80
2018-11-11T05:23:46.694Z,1.70
2018-11-11T05:28:50.554Z,1.77
2018-11-11T05:33:54.721Z,1.67
2018-11-11T05:38:58.631Z,1.67
2018-11-11T05:44:02.518Z,1.60
2018-11-11T05:49:06.430Z,1.67
2018-11-11T05:54:10.285Z,1.50
2018-11-11T05:59:14.151Z,2.30
2018-11-11T06:04:18.257Z,1.90
2018-11-11T06:09:22.144Z,1.80
2018-11-11T06:14:26.031Z,1.63
2018-11-11T06:19:29.881Z,1.33
2018-11-11T06:24:33.994Z,1.53
2018-11-11T06:29:37.880Z,1.40
2018-11-11T06:34:41.738Z,1.30
2018-11-11T06:39:45.857Z,1.63
2018-11-11T06:44:49.724Z,1.25
2018-11-11T06:49:53.610Z,1.10
2018-11-11T06:54:57.802Z,1.20
2018-11-11T07:00:01.691Z,1.47
2018-11-11T07:05:08.305Z,1.30
2018-11-11T07:10:12.154Z,1.30
2018-11-11T07:15:16.158Z,1.40
2018-11-11T07:20:20.060Z,1.53
2018-11-11T07:25:23.875Z,1.50
2018-11-11T07:30:27.733Z,1.30
2018-11-11T07:35:31.610Z,1.47
2018-11-11T07:40:35.464Z,1.50
2018-11-11T07:45:39.370Z,1.50
2018-11-11T07:50:43.273Z,1.40
2018-11-11T07:55:47.533Z,1.30
2018-11-11T08:00:51.689Z,1.50
2018-11-11T08:05:55.646Z,1.53
2018-11-11T08:11:10.957Z,1.53
2018-11-11T08:16:14.759Z,1.03
2018-11-11T08:21:18.613Z,1.40
2018-11-11T08:26:22.518Z,1.00
2018-11-11T08:31:26.370Z,1.47
2018-11-11T08:36:30.233Z,1.20
2018-11-11T08:41:34.083Z,1.40
2018-11-11T08:46:38.695Z,1.70
2018-11-11T08:51:42.558Z,1.43
2018-11-11T08:56:46.417Z,1.10
2018-11-11T09:01:50.295Z,1.60
2018-11-11T09:06:54.156Z,1.33
2018-11-11T09:11:58.054Z,1.20
2018-11-11T09:17:02.261Z,1.40
2018-11-11T09:22:06.615Z,1.53
2018-11-11T09:27:10.776Z,1.30
2018-11-11T09:32:14.892Z,1.20
2018-11-11T09:37:18.766Z,1.40
2018-11-11T09:42:22.729Z,1.07
2018-11-11T09:47:26.546Z,1.30
2018-11-11T09:52:30.662Z,1.20
2018-11-11T09:57:34.577Z,1.30
2018-11-11T10:02:38.539Z,1.27
2018-11-11T10:07:47.881Z,1.23
2018-11-11T10:12:56.444Z,1.23
2018-11-11T10:18:09.400Z,1.20
2018-11-11T10:23:25.706Z,1.57
2018-11-11T10:28:37.745Z,1.43
2018-11-11T10:33:48.198Z,1.40
2018-11-11T10:38:59.357Z,1.33
2018-11-11T10:44:07.226Z,1.20
2018-11-11T10:49:13.235Z,1.33
2018-11-11T10:54:17.120Z,1.40
2018-11-11T10:59:21.263Z,1.27
2018-11-11T11:04:25.123Z,1.60
2018-11-11T11:09:29.267Z,1.70
2018-11-11T11:14:33.198Z,1.60
2018-11-11T11:19:37.110Z,1.80
2018-11-11T11:24:41.048Z,1.50
2018-11-11T11:29:45.271Z,1.77
2018-11-11T11:34:49.178Z,1.50
2018-11-11T11:39:53.754Z,1.60
2018-11-11T11:44:57.874Z,1.70
2018-11-11T11:50:02.157Z,1.90
2018-11-11T11:55:06.445Z,1.90
2018-11-11T12:00:12.214Z,1.40
2018-11-11T12:05:16.096Z,1.80
2018-11-11T12:10:20.027Z,1.57
2018-11-11T12:15:23.873Z,1.67
2018-11-11T12:20:27.774Z,1.80
2018-11-11T12:25:31.887Z,1.67
2018-11-11T12:30:35.889Z,1.97
2018-11-11T12:35:39.687Z,1.57
2018-11-11T12:40:43.732Z,2.03
2018-11-11T12:45:48.043Z,1.53
2018-11-11T12:50:52.133Z,1.67
2018-11-11T12:55:56.359Z,1.70
2018-11-11T13:01:00.672Z,1.60
2018-11-11T13:06:06.559Z,1.53
2018-11-11T13:11:10.681Z,1.90
2018-11-11T13:16:14.904Z,1.73
2018-11-11T13:21:18.955Z,1.33
2018-11-11T13:26:23.152Z,1.60
2018-11-11T13:31:27.316Z,2.17
2018-11-11T13:36:31.477Z,2.60
2018-11-11T13:41:35.378Z,1.70
2018-11-11T13:46:39.864Z,1.73
2018-11-11T13:51:43.618Z,1.77
2018-11-11T13:56:47.918Z,1.97
2018-11-11T14:01:51.862Z,1.73
2018-11-11T14:06:55.853Z,2.47
2018-11-11T14:11:59.911Z,2.63
2018-11-11T14:17:03.751Z,1.33
2018-11-11T14:22:07.917Z,1.40
2018-11-11T14:27:12.537Z,1.63
2018-11-11T14:32:16.778Z,1.97
2018-11-11T14:37:20.575Z,1.50
2018-11-11T14:42:24.679Z,2.10
2018-11-11T14:47:29.057Z,1.83
2018-11-11T14:52:33.207Z,1.90
2018-11-11T14:57:37.070Z,1.70
2018-11-11T15:02:40.935Z,2.00
2018-11-11T15:07:44.804Z,1.83
2018-11-11T15:12:48.937Z,2.00
2018-11-11T15:17:53.450Z,2.00
2018-11-11T15:22:57.302Z,2.00
2018-11-11T15:28:01.149Z,1.90
2018-11-11T15:33:05.745Z,2.42
2018-11-11T15:38:09.578Z,2.30
2018-11-11T15:43:13.413Z,2.03
2018-11-11T15:48:17.344Z,1.90
2018-11-11T15:53:21.204Z,2.00
2018-11-11T15:58:25.050Z,1.85
2018-11-11T16:03:28.930Z,2.00
2018-11-11T16:08:33.017Z,1.90
2018-11-11T16:13:36.894Z,2.60
2018-11-11T16:18:41.021Z,2.30
2018-11-11T16:23:44.885Z,1.90
2018-11-11T16:28:48.930Z,2.30
2018-11-11T16:33:52.840Z,2.30
2018-11-11T16:38:56.641Z,2.40
2018-11-11T16:44:00.817Z,2.00
2018-11-11T16:49:05.212Z,2.37
2018-11-11T16:54:09.069Z,2.57
2018-11-11T16:59:12.905Z,2.57
2018-11-11T17:04:16.896Z,1.77
2018-11-11T17:09:20.681Z,1.32
2018-11-11T17:14:24.595Z,1.27
2018-11-11T17:19:28.363Z,1.20
2018-11-11T17:24:32.194Z,1.10
2018-11-11T17:29:36.049Z,1.13
2018-11-11T17:34:40.143Z,1.10
2018-11-11T17:39:44.227Z,1.40
2018-11-11T17:44:48.320Z,1.20
2018-11-11T17:49:52.419Z,1.00
2018-11-11T17:54:56.242Z,1.13
2018-11-11T18:00:00.087Z,1.20
2018-11-11T18:05:05.678Z,1.40
2018-11-11T18:10:13.371Z,1.10
2018-11-11T18:15:18.665Z,1.07
2018-11-11T18:20:23.919Z,1.73
2018-11-11T18:25:28.023Z,1.30
2018-11-11T18:30:33.194Z,1.27
2018-11-11T18:35:37.067Z,1.10
2018-11-11T18:40:40.962Z,1.60
2018-11-11T18:45:44.915Z,1.27
2018-11-11T18:50:48.642Z,1.30
2018-11-11T18:55:52.794Z,1.70
2018-11-11T19:00:56.883Z,1.50
2018-11-11T19:06:00.730Z,1.67
2018-11-11T19:11:05.094Z,1.40
2018-11-11T19:16:08.806Z,1.30
2018-11-11T19:21:12.682Z,1.73
2018-11-11T19:26:16.541Z,1.60
2018-11-11T19:31:20.647Z,1.30
2018-11-11T19:36:24.494Z,1.30
2018-11-11T19:41:28.636Z,1.13
2018-11-11T19:46:32.471Z,1.03
2018-11-11T19:51:36.422Z,1.20
2018-11-11T19:56:40.199Z,1.30
2018-11-11T20:01:44.279Z,1.40
2018-11-11T20:06:48.422Z,1.60
2018-11-11T20:11:52.563Z,1.30
2018-11-11T20:16:56.406Z,1.20
2018-11-11T20:22:00.254Z,1.30
2018-11-11T20:27:05.095Z,1.05
2018-11-11T20:32:08.941Z,1.10
2018-11-11T20:37:13.094Z,1.22
2018-11-11T20:42:16.941Z,1.10
2018-11-11T20:47:21.157Z,1.10
2018-11-11T20:52:25.006Z,1.00
2018-11-11T20:57:30.258Z,1.00
2018-11-11T21:02:34.109Z,1.17
2018-11-11T21:07:38.360Z,1.53
2018-11-11T21:12:42.182Z,1.20
2018-11-11T21:17:46.435Z,0.90
2018-11-11T21:22:50.324Z,1.40
2018-11-11T21:27:54.422Z,1.13
2018-11-11T21:32:58.593Z,1.50
2018-11-11T21:38:02.781Z,1.20
2018-11-11T21:43:06.872Z,0.90
2018-11-11T21:48:10.750Z,1.00
2018-11-11T21:53:35.152Z,1.00
2018-11-11T21:58:39.006Z,1.00
2018-11-11T22:03:42.868Z,1.37
2018-11-11T22:08:47.723Z,1.10
2018-11-11T22:13:51.754Z,0.90
2018-11-11T22:18:55.608Z,1.00
2018-11-11T22:23:59.704Z,1.00
2018-11-11T22:29:03.606Z,0.83
2018-11-11T22:34:07.462Z,1.00
2018-11-11T22:39:12.348Z,1.10
2018-11-11T22:44:16.458Z,1.00
2018-11-11T22:49:20.412Z,1.00
2018-11-11T22:54:24.241Z,0.80
2018-11-11T22:59:28.352Z,0.60
2018-11-11T23:04:32.490Z,0.73
2018-11-11T23:09:36.640Z,0.82
2018-11-11T23:14:40.540Z,0.80
2018-11-11T23:19:44.390Z,1.20
2018-11-11T23:24:48.250Z,1.10
2018-11-11T23:29:52.174Z,1.20
2018-11-11T23:34:56.030Z,1.10
2018-11-11T23:40:00.140Z,1.27
2018-11-11T23:45:04.017Z,1.20
2018-11-11T23:50:11.413Z,1.20
2018-11-11T23:55:16.506Z,1.10
